.
WxDataArchive / Data Records for 2012-12-15
2012-12-14 December 2012 2012-12-16

Data Records for Saturday, 15 December 2012

Time	Temp	Chill	HIndex	Humid	Dewpt	 Wind 	HiWind	WindDir	Rain 	Barom 
-----	----	-----	------	-----	-----	------	------	-------	-----	----- 
00:00	33.5	33.5	33.5	88	30.3	0	1	90	0.00	30.148 
00:05	33.7	33.7	33.7	88	30.5	0	1	90	0.00	30.148 
00:10	33.8	33.8	33.8	87	30.3	0	1	90	0.00	30.148 
00:15	34.0	34.0	34.0	87	30.5	0	1	90	0.00	30.146 
00:20	34.1	34.1	34.1	87	30.6	0	1	90	0.00	30.146 
00:25	34.1	34.1	34.1	86	30.4	0	1	90	0.00	30.146 
00:30	34.1	34.1	34.1	86	30.4	0	2	90	0.00	30.137 
00:35	34.1	34.1	34.1	86	30.4	0	1	90	0.00	30.137 
00:40	34.1	34.1	34.1	86	30.4	0	2	90	0.00	30.137 
00:45	34.1	34.1	34.1	85	30.1	0	1	90	0.00	30.133 
00:50	34.1	34.1	34.1	85	30.1	0	0	---	0.00	30.133 
00:55	34.0	34.0	34.0	85	30.0	0	0	---	0.00	30.133 
01:00	33.8	33.8	33.8	85	29.8	0	0	---	0.00	30.131 
01:05	33.7	33.7	33.7	85	29.7	0	0	---	0.00	30.131 
01:10	33.5	33.5	33.5	85	29.5	0	0	---	0.00	30.131 
01:15	33.5	33.5	33.5	86	29.8	0	0	---	0.00	30.123 
01:20	33.4	33.4	33.4	86	29.7	0	0	---	0.00	30.123 
01:25	33.4	33.4	33.4	86	29.7	0	0	---	0.00	30.123 
01:30	33.2	33.2	33.2	86	29.5	0	0	---	0.00	30.126 
01:35	33.1	33.1	33.1	86	29.4	0	0	---	0.00	30.126 
01:40	33.1	33.1	33.1	86	29.4	0	0	---	0.00	30.126 
01:45	33.1	33.1	33.1	86	29.4	0	0	---	0.00	30.125 
01:50	33.1	33.1	33.1	87	29.7	0	0	---	0.00	30.125 
01:55	33.1	33.1	33.1	87	29.7	0	0	---	0.00	30.125 
02:00	33.1	33.1	33.1	87	29.7	0	0	---	0.00	30.117 
02:05	33.1	33.1	33.1	87	29.7	0	0	---	0.00	30.117 
02:10	33.2	33.2	33.2	87	29.8	0	0	---	0.00	30.117 
02:15	33.4	33.4	33.4	87	30.0	0	0	---	0.00	30.113 
02:20	33.7	33.7	33.7	87	30.3	0	1	90	0.00	30.113 
02:25	33.8	33.8	33.8	86	30.1	0	0	---	0.00	30.113 
02:30	34.0	34.0	34.0	86	30.3	0	0	---	0.00	30.112 
02:35	34.0	34.0	34.0	85	30.0	0	0	---	0.00	30.112 
02:40	34.0	34.0	34.0	85	30.0	0	0	---	0.00	30.112 
02:45	34.1	34.1	34.1	85	30.1	0	0	---	0.00	30.112 
02:50	34.1	34.1	34.1	85	30.1	0	0	---	0.00	30.112 
02:55	34.3	34.3	34.3	85	30.3	0	0	---	0.00	30.112 
03:00	34.3	34.3	34.3	84	30.0	0	1	90	0.00	30.112 
03:05	34.4	34.4	34.4	84	30.1	0	0	---	0.00	30.112 
03:10	34.4	34.4	34.4	84	30.1	0	1	90	0.00	30.112 
03:15	34.6	34.6	34.6	84	30.3	0	2	90	0.00	30.108 
03:20	34.6	34.6	34.6	84	30.3	0	1	90	0.00	30.108 
03:25	34.6	34.6	34.6	84	30.3	0	2	90	0.00	30.108 
03:30	34.7	34.7	34.7	83	30.1	1	2	90	0.00	30.103 
03:35	34.7	34.7	34.7	83	30.1	0	2	90	0.00	30.103 
03:40	34.7	34.7	34.7	82	29.8	0	1	90	0.00	30.103 
03:45	34.7	34.7	34.7	82	29.8	0	1	90	0.00	30.101 
03:50	34.7	34.7	34.7	82	29.8	0	1	90	0.00	30.101 
03:55	34.7	34.7	34.7	82	29.8	0	1	90	0.00	30.101 
04:00	34.7	34.7	34.7	82	29.8	0	1	90	0.00	30.092 
04:05	34.7	34.7	34.7	82	29.8	0	0	---	0.00	30.092 
04:10	34.7	34.7	34.7	82	29.8	0	0	---	0.00	30.092 
04:15	34.6	34.6	34.6	82	29.7	0	0	---	0.00	30.092 
04:20	34.4	34.4	34.4	82	29.5	0	0	---	0.00	30.092 
04:25	34.3	34.3	34.3	82	29.4	0	0	---	0.00	30.092 
04:30	34.1	34.1	34.1	83	29.5	0	0	---	0.00	30.089 
04:35	34.1	34.1	34.1	83	29.5	0	0	---	0.00	30.089 
04:40	34.1	34.1	34.1	83	29.5	0	1	90	0.00	30.089 
04:45	34.1	34.1	34.1	84	29.8	0	1	90	0.00	30.085 
04:50	34.3	34.3	34.3	83	29.7	0	1	90	0.00	30.085 
04:55	34.3	34.3	34.3	83	29.7	0	0	---	0.00	30.085 
05:00	34.3	34.3	34.3	83	29.7	0	0	---	0.00	30.088 
05:05	34.1	34.1	34.1	83	29.5	0	0	---	0.00	30.088 
05:10	34.1	34.1	34.1	84	29.8	0	0	---	0.00	30.088 
05:15	34.1	34.1	34.1	84	29.8	0	0	---	0.00	30.094 
05:20	34.1	34.1	34.1	84	29.8	0	0	---	0.00	30.094 
05:25	34.1	34.1	34.1	84	29.8	0	0	---	0.00	30.094 
05:30	34.1	34.1	34.1	84	29.8	0	0	---	0.00	30.085 
05:35	34.3	34.3	34.3	84	30.0	0	1	90	0.00	30.085 
05:40	34.3	34.3	34.3	84	30.0	0	0	---	0.00	30.085 
05:45	34.4	34.4	34.4	84	30.1	0	1	90	0.00	30.081 
05:50	34.6	34.6	34.6	83	30.0	0	1	90	0.00	30.081 
05:55	34.7	34.7	34.7	83	30.1	0	2	90	0.00	30.081 
06:00	34.9	34.9	34.9	83	30.3	0	2	90	0.00	30.077 
06:05	35.0	35.0	35.0	83	30.4	0	2	90	0.00	30.077 
06:10	35.0	35.0	35.0	83	30.4	0	1	90	0.00	30.077 
06:15	35.0	35.0	35.0	82	30.1	0	2	90	0.00	30.080 
06:20	35.2	35.2	35.2	82	30.3	0	1	90	0.00	30.080 
06:25	35.3	35.3	35.3	82	30.4	1	3	90	0.00	30.080 
06:30	35.3	35.3	35.3	82	30.4	0	3	90	0.00	30.080 
06:35	35.3	35.3	35.3	82	30.4	0	1	90	0.00	30.080 
06:40	35.3	35.3	35.3	82	30.4	0	1	90	0.00	30.080 
06:45	35.5	35.5	35.5	82	30.6	0	0	---	0.00	30.085 
06:50	35.5	35.5	35.5	82	30.6	0	0	---	0.00	30.085 
06:55	35.5	35.5	35.5	82	30.6	0	1	90	0.00	30.085 
07:00	35.5	35.5	35.5	82	30.6	1	2	90	0.00	30.090 
07:05	35.5	35.5	35.5	82	30.6	0	1	90	0.00	30.090 
07:10	35.5	35.5	35.5	82	30.6	0	2	90	0.00	30.090 
07:15	35.5	35.5	35.5	82	30.6	0	2	90	0.00	30.095 
07:20	35.5	35.5	35.5	82	30.6	0	1	90	0.00	30.095 
07:25	35.5	35.5	35.5	82	30.6	0	1	90	0.00	30.095 
07:30	35.5	35.5	35.5	82	30.6	0	1	90	0.00	30.096 
07:35	35.5	35.5	35.5	82	30.6	0	1	90	0.00	30.096 
07:40	35.6	35.6	35.6	82	30.7	0	1	90	0.00	30.096 
07:45	35.6	35.6	35.6	82	30.7	0	2	90	0.00	30.093 
07:50	35.8	35.8	35.8	81	30.6	1	3	90	0.00	30.093 
07:55	35.9	35.9	35.9	81	30.6	1	3	90	0.00	30.093 
08:00	35.9	35.9	35.9	81	30.6	1	3	90	0.00	30.069 
08:05	35.9	35.9	35.9	81	30.6	1	4	90	0.00	30.069 
08:10	35.9	35.9	35.9	81	30.6	1	4	90	0.00	30.069 
08:15	36.0	36.0	36.0	81	30.7	1	2	90	0.00	30.068 
08:20	36.0	36.0	36.0	81	30.7	1	2	90	0.00	30.068 
08:25	36.2	36.2	36.2	80	30.6	1	3	90	0.00	30.068 
08:30	36.2	36.2	36.2	81	30.9	1	3	90	0.00	30.062 
08:35	36.3	36.3	36.3	81	31.0	0	2	90	0.00	30.062 
08:40	36.5	36.5	36.5	80	30.9	2	4	90	0.00	30.062 
08:45	36.8	36.8	36.8	79	30.9	1	3	90	0.00	30.055 
08:50	36.9	36.9	36.9	79	31.0	1	3	90	0.00	30.055 
08:55	36.9	36.9	36.9	79	31.0	1	3	90	0.00	30.055 
09:00	37.0	37.0	37.0	79	31.1	1	3	90	0.00	30.048 
09:05	37.2	37.2	37.2	78	31.0	1	3	90	0.00	30.048 
09:10	37.5	37.5	37.5	78	31.3	1	4	90	0.00	30.048 
09:15	37.6	37.6	37.6	77	31.1	1	4	90	0.00	30.035 
09:20	37.9	37.9	37.9	77	31.3	2	5	90	0.00	30.035 
09:25	38.2	38.2	38.2	76	31.3	3	5	90	0.00	30.035 
09:30	38.5	38.5	38.5	76	31.6	3	7	90	0.00	29.991 
09:35	38.5	38.5	38.5	77	31.9	1	7	90	0.00	29.991 
09:40	38.6	38.6	38.6	77	32.0	1	3	90	0.00	29.991 
09:45	38.8	38.8	38.8	77	32.2	2	5	90	0.00	30.009 
09:50	39.1	39.1	39.1	76	32.2	1	5	90	0.00	30.009 
09:55	39.2	39.2	39.2	76	32.3	0	2	90	0.00	30.009 
10:00	39.5	39.5	39.5	75	32.2	2	5	90	0.00	29.989 
10:05	39.6	39.6	39.6	75	32.3	1	5	90	0.00	29.989 
10:10	39.8	39.8	39.8	75	32.5	0	2	90	0.00	29.989 
10:15	40.1	40.1	40.1	75	32.8	0	2	90	0.00	30.015 
10:20	40.2	40.2	40.2	74	32.6	0	1	90	0.00	30.015 
10:25	40.5	40.5	40.5	74	32.9	0	3	90	0.00	30.015 
10:30	40.6	40.6	40.6	73	32.6	0	1	90	0.00	30.016 
10:35	40.9	40.9	40.9	72	32.6	1	3	90	0.00	30.016 
10:40	41.1	41.1	41.1	72	32.8	1	2	90	0.00	30.016 
10:45	41.2	41.2	41.2	72	32.9	1	2	90	0.00	30.012 
10:50	41.3	41.3	41.3	71	32.6	1	2	90	0.00	30.012 
10:55	41.5	41.5	41.5	71	32.8	0	2	112	0.00	30.012 
11:00	41.6	41.6	41.6	70	32.6	0	2	112	0.00	30.011 
11:05	41.6	41.6	41.6	70	32.6	0	2	112	0.00	30.011 
11:10	41.8	41.8	41.8	70	32.7	0	1	112	0.00	30.011 
11:15	41.8	41.8	41.8	70	32.7	0	2	112	0.00	29.982 
11:20	41.8	41.8	41.8	71	33.1	0	1	112	0.00	29.982 
11:25	41.9	41.9	41.9	71	33.2	1	4	90	0.00	29.982 
11:30	41.9	41.9	41.9	71	33.2	1	3	90	0.00	29.963 
11:35	42.1	42.1	42.1	71	33.4	1	3	135	0.00	29.963 
11:40	42.2	42.2	42.2	71	33.5	1	5	90	0.00	29.963 
11:45	42.3	42.3	42.3	71	33.6	2	5	112	0.00	29.943 
11:50	42.5	42.5	42.5	71	33.8	2	5	112	0.00	29.943 
11:55	42.8	40.6	42.8	70	33.7	4	7	90	0.00	29.943 
12:00	42.9	42.9	42.9	70	33.8	2	7	112	0.00	29.900 
12:05	43.3	43.3	43.3	70	34.2	3	7	112	0.00	29.900 
12:10	43.6	43.6	43.6	72	35.2	2	5	112	0.00	29.900 
12:15	43.8	43.8	43.8	72	35.4	2	9	90	0.00	29.871 
12:20	43.8	43.8	43.8	72	35.4	2	6	90	0.00	29.871 
12:25	44.1	44.1	44.1	73	36.0	2	6	68	0.00	29.871 
12:30	44.8	44.8	44.8	72	36.3	3	10	90	0.00	29.885 
12:35	45.2	45.2	45.2	70	36.0	3	10	90	0.00	29.885 
12:40	45.7	45.7	45.7	69	36.1	3	7	90	0.00	29.885 
12:45	46.1	46.1	46.1	70	36.9	2	7	90	0.00	29.859 
12:50	46.4	46.4	46.4	69	36.8	2	9	90	0.00	29.859 
12:55	46.5	46.5	46.5	67	36.1	3	6	90	0.00	29.859 
13:00	46.4	46.4	46.4	68	36.4	3	6	135	0.00	29.866 
13:05	46.4	46.4	46.4	68	36.4	2	5	68	0.00	29.866 
13:10	46.4	46.4	46.4	69	36.8	2	6	90	0.01	29.866 
13:15	46.2	46.2	46.2	71	37.3	2	6	90	0.00	29.869 
13:20	46.1	46.1	46.1	73	37.9	2	4	90	0.00	29.869 
13:25	46.0	46.0	46.0	75	38.5	2	5	112	0.00	29.869 
13:30	45.8	45.8	45.8	76	38.7	1	3	112	0.00	29.872 
13:35	45.7	45.7	45.7	77	38.9	1	7	112	0.00	29.872 
13:40	45.7	45.7	45.7	77	38.9	2	6	90	0.00	29.872 
13:45	45.5	45.5	45.5	77	38.7	2	6	112	0.00	29.867 
13:50	45.5	45.5	45.5	78	39.0	1	4	112	0.01	29.867 
13:55	45.4	45.4	45.4	79	39.3	2	6	135	0.00	29.867 
14:00	45.2	45.2	45.2	80	39.4	3	6	90	0.00	29.851 
14:05	45.1	45.1	45.1	81	39.6	1	4	112	0.00	29.851 
14:10	44.9	44.9	44.9	82	39.7	2	5	112	0.01	29.851 
14:15	44.6	44.6	44.6	84	40.1	1	3	112	0.01	29.845 
14:20	44.5	44.5	44.5	85	40.3	1	5	112	0.00	29.845 
14:25	44.2	44.2	44.2	86	40.3	1	4	112	0.01	29.845 
14:30	44.1	44.1	44.1	87	40.5	1	4	90	0.01	29.832 
14:35	44.1	44.1	44.1	88	40.8	1	4	90	0.00	29.832 
14:40	43.9	43.9	43.9	88	40.6	2	6	90	0.00	29.832 
14:45	43.8	43.8	43.8	89	40.8	1	5	90	0.00	29.824 
14:50	43.8	43.8	43.8	89	40.8	3	7	90	0.00	29.824 
14:55	43.8	43.8	43.8	89	40.8	2	5	90	0.00	29.824 
15:00	43.9	43.9	43.9	90	41.2	2	6	90	0.00	29.806 
15:05	43.9	43.9	43.9	90	41.2	3	10	112	0.00	29.806 
15:10	43.9	43.9	43.9	90	41.2	3	6	112	0.00	29.806 
15:15	43.9	43.9	43.9	89	40.9	3	8	112	0.00	29.803 
15:20	43.9	43.9	43.9	89	40.9	2	6	90	0.00	29.803 
15:25	43.8	43.8	43.8	90	41.1	2	6	90	0.00	29.803 
15:30	43.8	43.8	43.8	90	41.1	3	7	90	0.00	29.777 
15:35	43.8	43.8	43.8	90	41.1	2	6	112	0.00	29.777 
15:40	43.9	43.9	43.9	90	41.2	1	4	90	0.00	29.777 
15:45	43.9	43.9	43.9	90	41.2	2	4	90	0.00	29.784 
15:50	44.1	44.1	44.1	90	41.4	1	3	90	0.00	29.784 
15:55	44.1	44.1	44.1	90	41.4	1	4	90	0.00	29.784 
16:00	44.2	44.2	44.2	89	41.2	1	4	68	0.00	29.783 
16:05	44.2	44.2	44.2	89	41.2	1	3	135	0.00	29.783 
16:10	44.3	44.3	44.3	89	41.3	2	4	68	0.00	29.783 
16:15	44.3	44.3	44.3	89	41.3	1	4	68	0.00	29.780 
16:20	44.3	44.3	44.3	89	41.3	1	3	112	0.00	29.780 
16:25	44.5	44.5	44.5	89	41.5	1	5	112	0.00	29.780 
16:30	44.5	44.5	44.5	89	41.5	1	4	90	0.00	29.773 
16:35	44.6	44.6	44.6	88	41.3	1	4	112	0.00	29.773 
16:40	44.6	44.6	44.6	88	41.3	1	4	112	0.00	29.773 
16:45	44.6	44.6	44.6	88	41.3	1	4	112	0.00	29.773 
16:50	44.8	44.8	44.8	88	41.5	1	3	112	0.00	29.773 
16:55	44.8	44.8	44.8	88	41.5	1	3	112	0.00	29.773 
17:00	44.9	44.9	44.9	88	41.6	1	2	112	0.00	29.772 
17:05	44.9	44.9	44.9	88	41.6	1	4	112	0.00	29.772 
17:10	45.1	45.1	45.1	88	41.8	1	3	112	0.00	29.772 
17:15	45.2	45.2	45.2	88	41.9	1	4	112	0.00	29.770 
17:20	45.2	45.2	45.2	87	41.6	1	3	112	0.00	29.770 
17:25	45.4	45.4	45.4	87	41.8	0	2	112	0.00	29.770 
17:30	45.5	45.5	45.5	87	41.9	2	4	135	0.00	29.760 
17:35	45.8	45.8	45.8	86	41.9	2	5	90	0.00	29.760 
17:40	46.2	46.2	46.2	85	41.9	3	7	90	0.00	29.760 
17:45	46.5	46.5	46.5	84	41.9	3	7	90	0.00	29.753 
17:50	46.7	46.7	46.7	84	42.1	2	9	90	0.00	29.753 
17:55	46.8	46.8	46.8	84	42.2	2	5	90	0.00	29.753 
18:00	47.0	47.0	47.0	84	42.4	2	6	135	0.00	29.750 
18:05	47.0	47.0	47.0	84	42.4	2	7	90	0.00	29.750 
18:10	47.0	47.0	47.0	84	42.4	3	9	90	0.00	29.750 
18:15	47.1	47.1	47.1	84	42.5	3	8	90	0.00	29.740 
18:20	47.1	47.1	47.1	84	42.5	2	6	112	0.00	29.740 
18:25	47.1	47.1	47.1	84	42.5	3	7	90	0.00	29.740 
18:30	47.1	47.1	47.1	84	42.5	3	6	90	0.00	29.736 
18:35	47.1	47.1	47.1	85	42.8	3	7	90	0.00	29.736 
18:40	47.1	47.1	47.1	85	42.8	3	5	90	0.00	29.736 
18:45	47.1	47.1	47.1	85	42.8	2	7	90	0.00	29.730 
18:50	47.1	47.1	47.1	86	43.1	3	6	90	0.00	29.730 
18:55	47.1	47.1	47.1	86	43.1	3	9	90	0.00	29.730 
19:00	47.1	47.1	47.1	87	43.4	3	6	90	0.00	29.725 
19:05	47.1	47.1	47.1	87	43.4	2	6	90	0.00	29.725 
19:10	47.1	47.1	47.1	88	43.7	3	7	112	0.00	29.725 
19:15	47.0	47.0	47.0	88	43.6	3	6	90	0.00	29.722 
19:20	47.0	47.0	47.0	88	43.6	2	6	112	0.01	29.722 
19:25	46.8	46.8	46.8	89	43.7	2	5	90	0.00	29.722 
19:30	46.8	46.8	46.8	89	43.7	2	5	90	0.00	29.721 
19:35	46.7	46.7	46.7	90	43.9	3	7	90	0.00	29.721 
19:40	46.7	46.7	46.7	90	43.9	2	5	90	0.00	29.721 
19:45	46.5	46.5	46.5	90	43.7	3	7	90	0.00	29.718 
19:50	46.5	46.5	46.5	91	44.0	2	6	90	0.00	29.718 
19:55	46.7	46.7	46.7	91	44.2	2	7	90	0.00	29.718 
20:00	46.7	46.7	46.7	91	44.2	2	5	90	0.00	29.715 
20:05	46.7	46.7	46.7	91	44.2	2	4	112	0.00	29.715 
20:10	46.8	46.8	46.8	91	44.3	2	4	90	0.00	29.715 
20:15	46.8	46.8	46.8	91	44.3	2	6	112	0.00	29.713 
20:20	47.0	47.0	47.0	90	44.2	2	6	90	0.00	29.713 
20:25	47.1	47.1	47.1	90	44.3	1	4	90	0.00	29.713 
20:30	47.3	47.3	47.3	90	44.5	3	9	90	0.00	29.708 
20:35	47.4	47.4	47.4	90	44.6	1	5	90	0.00	29.708 
20:40	47.4	47.4	47.4	90	44.6	1	9	90	0.00	29.708 
20:45	47.6	47.6	47.6	90	44.8	1	5	0	0.00	29.707 
20:50	47.6	47.6	47.6	90	44.8	1	4	112	0.00	29.707 
20:55	47.7	47.7	47.7	90	44.9	2	6	90	0.00	29.707 
21:00	47.9	47.9	47.9	90	45.1	1	3	112	0.00	29.702 
21:05	47.9	47.9	47.9	90	45.1	1	6	90	0.00	29.702 
21:10	48.0	48.0	48.0	89	44.9	1	3	112	0.00	29.702 
21:15	48.0	48.0	48.0	89	44.9	0	2	112	0.00	29.701 
21:20	48.0	48.0	48.0	90	45.2	1	3	292	0.00	29.701 
21:25	48.2	48.2	48.2	90	45.4	1	3	45	0.00	29.701 
21:30	48.2	48.2	48.2	90	45.4	1	5	112	0.00	29.686 
21:35	48.3	48.3	48.3	90	45.5	1	2	112	0.00	29.686 
21:40	48.5	48.5	48.5	90	45.7	1	3	112	0.00	29.686 
21:45	48.5	48.5	48.5	90	45.7	0	3	270	0.00	29.694 
21:50	48.6	48.6	48.6	90	45.8	0	2	270	0.00	29.694 
21:55	48.6	48.6	48.6	90	45.8	0	3	270	0.00	29.694 
22:00	48.8	48.8	48.8	90	46.0	0	1	270	0.00	29.690 
22:05	48.9	48.9	48.9	90	46.1	1	3	248	0.00	29.690 
22:10	49.1	49.1	49.1	90	46.3	1	2	248	0.00	29.690 
22:15	49.2	49.2	49.2	90	46.4	1	3	225	0.00	29.684 
22:20	49.4	49.4	49.4	90	46.6	1	6	90	0.00	29.684 
22:25	49.4	49.4	49.4	90	46.6	0	3	90	0.00	29.684 
22:30	49.5	49.5	49.5	90	46.7	1	3	270	0.00	29.682 
22:35	49.5	49.5	49.5	90	46.7	0	3	270	0.00	29.682 
22:40	49.6	49.6	49.6	90	46.8	1	6	248	0.00	29.682 
22:45	49.6	49.6	49.6	90	46.8	1	4	248	0.00	29.678 
22:50	49.6	49.6	49.6	90	46.8	0	3	90	0.00	29.678 
22:55	49.6	49.6	49.6	90	46.8	0	2	135	0.00	29.678 
23:00	49.6	49.6	49.6	90	46.8	1	3	158	0.00	29.680 
23:05	49.8	49.8	49.8	90	47.0	1	5	248	0.00	29.680 
23:10	49.8	49.8	49.8	90	47.0	1	3	68	0.00	29.680 
23:15	49.9	49.9	49.9	90	47.1	0	4	68	0.00	29.676 
23:20	50.1	50.1	50.1	90	47.3	0	2	68	0.00	29.676 
23:25	50.1	50.1	50.1	90	47.3	0	3	68	0.00	29.676 
23:30	50.2	50.2	50.2	90	47.4	1	10	68	0.00	29.671 
23:35	50.4	50.4	50.4	90	47.6	1	4	90	0.00	29.671 
23:40	50.5	50.5	50.5	90	47.7	1	4	248	0.00	29.671 
23:45	50.5	50.5	50.5	90	47.7	0	5	68	0.00	29.665 
23:50	50.7	50.7	50.7	90	47.9	1	3	292	0.00	29.665 
23:55	50.8	50.8	50.8	90	48.0	1	5	248	0.00	29.665 

CoCoRaHS
IN-AL-39
A2 Web Hosting
Creative Commons License
GoDaddy
search engine by freefind advanced

loaded 2018-11-15 03:08:28 • last modified 2010-11-18 10:43:29
Privacy PolicyDisclaimer
• wx.awcolley.com is powered by PmWiki v.2002016 •
• all content (unless otherwise noted) © 2018 A W Colley